createdAt,value
2018-07-31T00:12:32.251Z,99.23
2018-07-31T00:27:36.053Z,100.00
2018-07-31T00:42:39.847Z,97.37
2018-07-31T00:57:43.980Z,93.89
2018-07-31T01:12:48.289Z,91.04
2018-07-31T01:27:52.372Z,91.78
2018-07-31T01:42:56.377Z,92.16
2018-07-31T01:58:00.471Z,93.11
2018-07-31T02:13:04.693Z,95.92
2018-07-31T02:28:09.404Z,97.13
2018-07-31T02:43:13.247Z,96.02
2018-07-31T02:58:17.394Z,95.02
2018-07-31T03:13:21.700Z,95.40
2018-07-31T03:28:25.973Z,96.72
2018-07-31T03:43:30.184Z,97.50
2018-07-31T03:58:34.323Z,96.55
2018-07-31T04:13:38.453Z,95.65
2018-07-31T04:28:42.697Z,92.67
2018-07-31T04:43:46.886Z,92.75
2018-07-31T04:58:51.347Z,89.62
2018-07-31T05:13:55.570Z,89.36
2018-07-31T05:28:59.778Z,87.53
2018-07-31T05:44:04.271Z,86.76
2018-07-31T05:59:08.399Z,88.30
2018-07-31T06:14:12.786Z,86.23
2018-07-31T06:29:16.585Z,81.09
2018-07-31T06:44:20.946Z,71.42
2018-07-31T06:59:24.736Z,70.75
2018-07-31T07:14:28.973Z,71.58
2018-07-31T07:29:33.367Z,70.49
2018-07-31T07:44:37.620Z,65.98
2018-07-31T07:59:41.749Z,65.78
2018-07-31T08:14:45.532Z,64.73
2018-07-31T08:29:49.341Z,63.41
2018-07-31T08:44:53.731Z,55.47
2018-07-31T08:59:57.787Z,51.68
2018-07-31T09:15:02.116Z,49.75
2018-07-31T09:30:06.837Z,46.48
2018-07-31T09:45:11.387Z,52.04
2018-07-31T10:00:18.996Z,55.29
2018-07-31T10:15:32.336Z,46.93
2018-07-31T10:30:36.246Z,45.53
2018-07-31T10:45:40.496Z,45.78
2018-07-31T11:00:44.646Z,51.68
2018-07-31T11:15:48.922Z,50.63
2018-07-31T11:30:52.910Z,55.97
2018-07-31T11:45:57.132Z,52.76
2018-07-31T12:01:01.381Z,60.58
2018-07-31T12:16:05.778Z,57.86
2018-07-31T12:31:10.051Z,50.19
2018-07-31T12:46:14.427Z,57.56
2018-07-31T13:01:18.703Z,63.71
2018-07-31T13:16:22.979Z,71.23
2018-07-31T13:31:27.081Z,87.24
2018-07-31T13:46:31.444Z,90.57
2018-07-31T14:01:35.551Z,89.23
2018-07-31T14:16:39.416Z,89.54
2018-07-31T14:31:43.587Z,85.90
2018-07-31T14:46:47.986Z,83.36
2018-07-31T15:01:51.821Z,75.33
2018-07-31T15:16:55.690Z,78.68
2018-07-31T15:31:59.656Z,79.19
2018-07-31T15:47:03.662Z,78.66
2018-07-31T16:02:08.358Z,76.40
2018-07-31T16:17:12.327Z,75.21
2018-07-31T16:32:16.126Z,83.73
2018-07-31T16:47:19.968Z,86.05
2018-07-31T17:02:24.089Z,87.71
2018-07-31T17:17:28.007Z,89.04
2018-07-31T17:32:32.131Z,91.40
2018-07-31T17:47:36.554Z,92.41
2018-07-31T18:02:40.948Z,94.73
2018-07-31T18:17:45.043Z,98.25
2018-07-31T18:32:49.229Z,99.65
2018-07-31T18:47:53.606Z,100.00
2018-07-31T19:02:58.001Z,100.00
2018-07-31T19:18:01.945Z,100.00
2018-07-31T19:33:05.801Z,100.00
2018-07-31T19:48:09.621Z,100.00
2018-07-31T20:03:13.705Z,100.00
2018-07-31T20:18:17.628Z,98.57
2018-07-31T20:33:22.002Z,94.04
2018-07-31T20:48:25.992Z,95.88
2018-07-31T21:03:30.347Z,98.07
2018-07-31T21:18:34.649Z,100.00
2018-07-31T21:33:38.497Z,100.00
2018-07-31T21:48:42.889Z,100.00
2018-07-31T22:03:47.064Z,100.00
2018-07-31T22:18:50.875Z,100.00
2018-07-31T22:33:55.032Z,100.00
2018-07-31T22:48:59.141Z,100.00
2018-07-31T23:04:03.367Z,100.00
2018-07-31T23:19:07.671Z,100.00
2018-07-31T23:34:11.644Z,100.00
2018-07-31T23:49:15.728Z,100.00
